createdAt,value
2022-12-15T00:00:45.382Z,-4.36
2022-12-15T00:03:33.399Z,-4.33
2022-12-15T00:06:20.620Z,-4.38
2022-12-15T00:09:12.681Z,-4.36
2022-12-15T00:12:00.718Z,-4.37
2022-12-15T00:14:47.240Z,-4.36
2022-12-15T00:17:33.561Z,-4.34
2022-12-15T00:20:21.815Z,-4.39
2022-12-15T00:23:08.424Z,-4.35
2022-12-15T00:25:55.218Z,-4.44
2022-12-15T00:28:42.883Z,-4.45
2022-12-15T00:31:29.472Z,-4.47
2022-12-15T00:34:15.844Z,-4.42
2022-12-15T00:37:03.528Z,-4.38
2022-12-15T00:39:32.692Z,-4.11
2022-12-15T00:42:01.835Z,-4.14
2022-12-15T00:44:31.010Z,-4.20
2022-12-15T00:46:59.131Z,-4.07
2022-12-15T00:49:47.211Z,-4.01
2022-12-15T00:52:36.718Z,-4.04
2022-12-15T00:55:24.250Z,-4.27
2022-12-15T00:58:12.497Z,-4.31
2022-12-15T01:00:58.889Z,-4.44
2022-12-15T01:03:45.369Z,-4.49
2022-12-15T01:06:34.093Z,-4.44
2022-12-15T01:09:24.800Z,-4.48
2022-12-15T01:12:11.362Z,-4.45
2022-12-15T01:14:57.916Z,-4.43
2022-12-15T01:17:44.213Z,-4.35
2022-12-15T01:20:18.655Z,-4.39
2022-12-15T01:22:49.411Z,-4.37
2022-12-15T01:25:22.050Z,-4.26
2022-12-15T01:27:51.504Z,-4.29
2022-12-15T01:30:23.183Z,-4.28
2022-12-15T01:32:52.664Z,-4.27
2022-12-15T01:35:22.463Z,-4.24
2022-12-15T01:37:51.573Z,-3.77
2022-12-15T01:40:40.365Z,-3.58
2022-12-15T01:43:15.112Z,-3.49
2022-12-15T01:46:06.381Z,-3.53
2022-12-15T01:48:45.544Z,-3.57
2022-12-15T01:51:29.752Z,-3.50
2022-12-15T01:54:05.652Z,-3.49
2022-12-15T01:56:44.032Z,-3.64
2022-12-15T01:59:19.656Z,-3.75
2022-12-15T02:01:49.763Z,-3.75
2022-12-15T02:04:20.797Z,-3.64
2022-12-15T02:06:49.994Z,-3.53
2022-12-15T02:09:20.290Z,-3.52
2022-12-15T02:12:05.331Z,-3.53
2022-12-15T02:15:09.452Z,-3.55
2022-12-15T02:17:48.068Z,-3.58
2022-12-15T02:20:50.648Z,-3.52
2022-12-15T02:23:56.461Z,-3.43
2022-12-15T02:27:21.198Z,-3.42
2022-12-15T02:30:27.556Z,-3.35
2022-12-15T02:33:08.084Z,-3.29
2022-12-15T02:35:48.677Z,-3.45
2022-12-15T02:38:28.993Z,-3.42
2022-12-15T02:41:02.932Z,-3.27
2022-12-15T02:43:37.271Z,-3.40
2022-12-15T02:46:23.126Z,-3.56
2022-12-15T02:49:05.207Z,-3.65
2022-12-15T02:51:55.039Z,-3.46
2022-12-15T02:54:49.134Z,-3.47
2022-12-15T02:57:26.165Z,-3.40
2022-12-15T02:59:59.408Z,-3.34
2022-12-15T03:02:34.443Z,-3.35
2022-12-15T03:05:06.026Z,-3.23
2022-12-15T03:07:35.455Z,-3.11
2022-12-15T03:10:08.186Z,-3.12
2022-12-15T03:12:37.690Z,-3.11
2022-12-15T03:15:08.535Z,-3.15
2022-12-15T03:17:39.208Z,-3.07
2022-12-15T03:20:10.217Z,-3.19
2022-12-15T03:22:40.007Z,-3.21
2022-12-15T03:25:09.991Z,-3.27
2022-12-15T03:27:39.049Z,-3.43
2022-12-15T03:30:10.089Z,-3.35
2022-12-15T03:32:40.776Z,-3.23
2022-12-15T03:35:10.722Z,-3.22
2022-12-15T03:37:40.044Z,-3.25
2022-12-15T03:40:11.602Z,-3.34
2022-12-15T03:42:49.670Z,-3.53
2022-12-15T03:45:20.183Z,-3.49
2022-12-15T03:47:52.365Z,-3.70
2022-12-15T03:50:24.252Z,-3.58
2022-12-15T03:52:54.437Z,-3.63
2022-12-15T03:55:24.453Z,-3.79
2022-12-15T03:57:53.843Z,-3.76
2022-12-15T04:00:24.529Z,-3.72
2022-12-15T04:02:55.979Z,-3.80
2022-12-15T04:05:28.384Z,-3.87
2022-12-15T04:07:59.326Z,-3.71
2022-12-15T04:10:34.235Z,-3.61
2022-12-15T04:13:06.680Z,-3.64
2022-12-15T04:15:37.582Z,-3.55
2022-12-15T04:18:11.625Z,-3.52
2022-12-15T04:20:41.393Z,-3.43
2022-12-15T04:23:10.636Z,-3.29
2022-12-15T04:25:57.263Z,-3.26
2022-12-15T04:28:43.883Z,-3.23
2022-12-15T04:31:33.365Z,-3.29
2022-12-15T04:34:25.176Z,-3.46
2022-12-15T04:37:12.676Z,-3.54
2022-12-15T04:40:01.422Z,-3.63
2022-12-15T04:42:50.506Z,-3.50
2022-12-15T04:45:40.196Z,-3.45
2022-12-15T04:48:26.911Z,-3.61
2022-12-15T04:51:15.141Z,-3.65
2022-12-15T04:54:02.253Z,-3.71
2022-12-15T04:56:49.879Z,-3.76
2022-12-15T04:59:37.132Z,-3.76
2022-12-15T05:02:23.886Z,-3.58
2022-12-15T05:05:10.493Z,-3.58
2022-12-15T05:07:58.133Z,-3.70
2022-12-15T05:10:44.419Z,-3.84
2022-12-15T05:13:31.358Z,-3.98
2022-12-15T05:16:18.259Z,-4.08
2022-12-15T05:19:10.754Z,-4.20
2022-12-15T05:21:57.921Z,-4.09
2022-12-15T05:24:47.132Z,-3.99
2022-12-15T05:27:33.694Z,-4.16
2022-12-15T05:30:19.873Z,-4.03
2022-12-15T05:32:49.984Z,-4.05
2022-12-15T05:35:19.199Z,-4.26
2022-12-15T05:37:48.420Z,-4.46
2022-12-15T05:40:18.915Z,-4.43
2022-12-15T05:42:50.260Z,-4.44
2022-12-15T05:45:20.286Z,-4.30
2022-12-15T05:47:53.687Z,-4.29
2022-12-15T05:50:24.222Z,-4.42
2022-12-15T05:52:54.495Z,-4.22
2022-12-15T05:55:25.410Z,-4.35
2022-12-15T05:57:58.118Z,-4.52
2022-12-15T06:00:31.969Z,-4.65
2022-12-15T06:03:03.061Z,-4.61
2022-12-15T06:05:32.624Z,-4.66
2022-12-15T06:08:02.362Z,-4.67
2022-12-15T06:10:32.891Z,-4.68
2022-12-15T06:13:02.170Z,-4.75
2022-12-15T06:15:31.715Z,-4.84
2022-12-15T06:18:01.017Z,-4.87
2022-12-15T06:20:32.593Z,-4.94
2022-12-15T06:23:01.935Z,-4.95
2022-12-15T06:25:32.578Z,-5.03
2022-12-15T06:28:02.163Z,-5.04
2022-12-15T06:30:32.840Z,-4.97
2022-12-15T06:33:02.936Z,-4.82
2022-12-15T06:35:32.147Z,-4.89
2022-12-15T06:38:01.959Z,-4.86
2022-12-15T06:40:37.698Z,-4.84
2022-12-15T06:43:07.822Z,-4.80
2022-12-15T06:45:37.064Z,-4.89
2022-12-15T06:48:08.400Z,-4.85
2022-12-15T06:50:37.416Z,-4.80
2022-12-15T06:53:06.519Z,-4.87
2022-12-15T06:55:37.028Z,-4.92
2022-12-15T06:58:06.132Z,-4.90
2022-12-15T07:00:37.943Z,-4.89
2022-12-15T07:03:12.150Z,-4.84
2022-12-15T07:05:41.437Z,-4.82
2022-12-15T07:08:12.075Z,-4.75
2022-12-15T07:10:44.163Z,-4.73
2022-12-15T07:13:14.129Z,-4.74
2022-12-15T07:15:44.596Z,-4.73
2022-12-15T07:18:13.793Z,-4.78
2022-12-15T07:20:43.063Z,-4.74
2022-12-15T07:23:12.348Z,-4.71
2022-12-15T07:25:42.774Z,-4.69
2022-12-15T07:28:12.158Z,-4.63
2022-12-15T07:30:41.281Z,-4.55
2022-12-15T07:33:10.437Z,-4.49
2022-12-15T07:35:39.557Z,-4.40
2022-12-15T07:38:09.725Z,-4.29
2022-12-15T07:40:39.159Z,-4.17
2022-12-15T07:43:09.644Z,-4.07
2022-12-15T07:45:39.855Z,-3.89
2022-12-15T07:48:08.788Z,-3.79
2022-12-15T07:50:39.696Z,-3.78
2022-12-15T07:53:08.687Z,-3.38
2022-12-15T07:56:05.511Z,-3.08
2022-12-15T07:58:29.416Z,-3.23
2022-12-15T08:01:01.920Z,-3.17
2022-12-15T08:03:31.976Z,-3.05
2022-12-15T08:06:05.511Z,-3.02
2022-12-15T08:08:36.517Z,-2.83
2022-12-15T08:11:06.853Z,-2.80
2022-12-15T08:16:29.168Z,-2.63
2022-12-15T08:18:59.338Z,-2.69
2022-12-15T08:21:28.439Z,-2.60
2022-12-15T08:23:57.563Z,-2.48
2022-12-15T08:26:30.305Z,-2.27
2022-12-15T08:29:49.099Z,-2.10
2022-12-15T08:31:54.917Z,-1.97
2022-12-15T08:34:24.172Z,-2.01
2022-12-15T08:36:53.181Z,-1.81
2022-12-15T08:39:22.151Z,-1.68
2022-12-15T08:41:51.549Z,-1.64
2022-12-15T08:44:23.220Z,-1.56
2022-12-15T08:46:52.508Z,-1.45
2022-12-15T08:49:22.502Z,-1.42
2022-12-15T08:51:52.516Z,-1.45
2022-12-15T08:54:22.523Z,-1.38
2022-12-15T08:56:51.700Z,-1.12
2022-12-15T08:59:22.133Z,-1.14
2022-12-15T09:01:51.441Z,-1.17
2022-12-15T09:04:20.734Z,-1.07
2022-12-15T09:06:50.430Z,-1.01
2022-12-15T09:09:20.652Z,-0.89
2022-12-15T09:11:51.285Z,-0.75
2022-12-15T09:14:28.878Z,-0.67
2022-12-15T09:16:58.759Z,-0.56
2022-12-15T09:19:28.012Z,-0.31
2022-12-15T09:21:56.999Z,-0.17
2022-12-15T09:24:34.419Z,0.08
2022-12-15T09:27:05.222Z,0.27
2022-12-15T09:29:35.840Z,0.46
2022-12-15T09:32:10.501Z,0.61
2022-12-15T09:34:41.864Z,0.80
2022-12-15T09:37:10.918Z,0.89
2022-12-15T09:39:40.255Z,1.05
2022-12-15T09:42:26.116Z,1.03
2022-12-15T09:45:08.477Z,1.01
2022-12-15T09:47:46.085Z,1.08
2022-12-15T09:50:17.951Z,1.03
2022-12-15T09:52:51.493Z,1.05
2022-12-15T09:55:24.530Z,1.17
2022-12-15T09:57:57.171Z,1.17
2022-12-15T10:00:42.621Z,1.15
2022-12-15T10:03:42.830Z,1.23
2022-12-15T10:06:19.224Z,1.25
2022-12-15T10:08:57.669Z,1.19
2022-12-15T10:11:50.333Z,1.28
2022-12-15T10:14:31.676Z,1.30
2022-12-15T10:17:18.628Z,1.38
2022-12-15T10:20:01.284Z,1.49
2022-12-15T10:22:34.220Z,1.44
2022-12-15T10:25:15.603Z,1.26
2022-12-15T10:28:10.986Z,1.30
2022-12-15T10:30:52.150Z,1.10
2022-12-15T10:33:26.926Z,1.00
2022-12-15T10:35:59.089Z,1.03
2022-12-15T10:38:38.702Z,0.97
2022-12-15T10:41:10.460Z,1.22
2022-12-15T10:43:42.031Z,1.33
2022-12-15T10:46:15.533Z,1.41
2022-12-15T10:48:49.216Z,1.53
2022-12-15T10:51:27.485Z,1.30
2022-12-15T10:54:14.640Z,1.52
2022-12-15T10:56:53.717Z,1.62
2022-12-15T10:59:31.061Z,1.64
2022-12-15T11:02:34.674Z,1.81
2022-12-15T11:05:19.000Z,2.04
2022-12-15T11:07:51.883Z,2.10
2022-12-15T11:10:24.921Z,2.18
2022-12-15T11:13:16.384Z,2.19
2022-12-15T11:15:50.537Z,2.27
2022-12-15T11:18:43.860Z,2.46
2022-12-15T11:21:25.910Z,2.56
2022-12-15T11:24:09.934Z,2.71
2022-12-15T11:26:53.425Z,3.05
2022-12-15T11:29:34.594Z,3.30
2022-12-15T11:32:07.251Z,3.42
2022-12-15T11:34:44.539Z,3.44
2022-12-15T11:40:40.021Z,3.48
2022-12-15T11:43:52.202Z,3.40
2022-12-15T11:46:24.021Z,3.47
2022-12-15T11:49:29.250Z,3.51
2022-12-15T11:52:06.028Z,3.47
2022-12-15T11:54:45.180Z,3.44
2022-12-15T11:57:42.412Z,3.41
2022-12-15T12:00:15.774Z,3.44
2022-12-15T12:03:21.918Z,3.45
2022-12-15T12:06:06.628Z,3.61
2022-12-15T12:09:10.781Z,3.77
2022-12-15T12:11:48.841Z,3.82
2022-12-15T12:14:37.460Z,4.00
2022-12-15T12:17:15.189Z,4.07
2022-12-15T12:19:50.863Z,3.97
2022-12-15T12:22:27.529Z,4.16
2022-12-15T12:25:02.295Z,4.42
2022-12-15T12:27:40.884Z,4.69
2022-12-15T12:30:17.300Z,4.69
2022-12-15T12:32:54.946Z,4.56
2022-12-15T12:38:26.320Z,4.39
2022-12-15T12:41:06.278Z,4.39
2022-12-15T12:43:43.183Z,4.53
2022-12-15T12:46:22.676Z,4.35
2022-12-15T12:48:59.040Z,4.17
2022-12-15T12:51:32.019Z,3.83
2022-12-15T12:54:30.973Z,3.58
2022-12-15T12:57:00.942Z,3.41
2022-12-15T12:59:41.858Z,3.28
2022-12-15T13:03:12.303Z,3.28
2022-12-15T13:05:44.288Z,3.38
2022-12-15T13:08:51.922Z,3.57
2022-12-15T13:12:00.867Z,3.88
2022-12-15T13:14:48.221Z,4.29
2022-12-15T13:17:32.300Z,4.78
2022-12-15T13:20:29.141Z,4.92
2022-12-15T13:23:44.642Z,4.56
2022-12-15T13:26:19.385Z,4.21
2022-12-15T13:28:54.406Z,3.94
2022-12-15T13:31:49.234Z,3.52
2022-12-15T13:34:33.982Z,3.15
2022-12-15T13:37:04.167Z,2.83
2022-12-15T13:39:59.646Z,2.47
2022-12-15T13:42:37.256Z,2.13
2022-12-15T13:46:06.746Z,1.74
2022-12-15T13:48:41.717Z,1.52
2022-12-15T13:51:33.621Z,1.43
2022-12-15T13:54:16.516Z,1.42
2022-12-15T13:57:06.920Z,1.39
2022-12-15T13:59:45.823Z,1.26
2022-12-15T14:02:57.750Z,1.22
2022-12-15T14:05:32.053Z,1.22
2022-12-15T14:08:13.250Z,1.20
2022-12-15T14:10:51.775Z,1.19
2022-12-15T14:13:27.688Z,1.09
2022-12-15T14:16:04.247Z,1.10
2022-12-15T14:18:35.961Z,1.07
2022-12-15T14:21:09.260Z,1.12
2022-12-15T14:24:10.998Z,1.09
2022-12-15T14:26:34.838Z,1.09
2022-12-15T14:29:07.638Z,0.94
2022-12-15T14:31:38.719Z,0.87
2022-12-15T15:03:12.826Z,4.40
2022-12-15T15:24:03.554Z,-0.29
2022-12-15T15:26:33.083Z,-0.24
2022-12-15T15:29:02.986Z,-0.22
2022-12-15T15:31:41.319Z,-0.21
2022-12-15T15:34:11.609Z,-0.14
2022-12-15T15:36:41.036Z,-0.08
2022-12-15T15:39:17.060Z,-0.07
2022-12-15T15:41:46.275Z,-0.01
2022-12-15T15:44:16.827Z,0.00
2022-12-15T15:46:49.872Z,0.02
2022-12-15T15:49:23.563Z,0.06
2022-12-15T15:51:53.340Z,0.07
2022-12-15T15:54:45.751Z,0.12
2022-12-15T15:57:16.394Z,0.17
2022-12-15T15:59:47.130Z,0.18
2022-12-15T16:02:16.900Z,0.17
2022-12-15T16:04:46.123Z,0.15
2022-12-15T16:07:24.172Z,0.17
2022-12-15T16:09:55.819Z,0.25
2022-12-15T16:12:29.372Z,0.21
2022-12-15T16:14:58.524Z,0.15
2022-12-15T16:17:27.611Z,0.11
2022-12-15T16:19:57.738Z,0.09
2022-12-15T16:22:26.848Z,0.16
2022-12-15T16:24:58.481Z,0.16
2022-12-15T16:27:28.491Z,0.15
2022-12-15T16:29:58.119Z,0.14
2022-12-15T16:32:27.265Z,0.09
2022-12-15T16:34:56.224Z,0.08
2022-12-15T16:37:28.369Z,0.08
2022-12-15T16:39:58.713Z,0.07
2022-12-15T16:42:27.755Z,0.09
2022-12-15T16:44:57.326Z,0.03
2022-12-15T16:47:27.240Z,0.03
2022-12-15T16:49:56.301Z,0.04
2022-12-15T16:52:25.309Z,0.02
2022-12-15T16:54:58.570Z,-0.06
2022-12-15T16:57:27.699Z,-0.06
2022-12-15T16:59:57.223Z,-0.05
2022-12-15T17:02:29.837Z,-0.03
2022-12-15T17:04:59.149Z,-0.03
2022-12-15T17:07:29.567Z,-0.05
2022-12-15T17:10:00.784Z,-0.06
2022-12-15T17:12:30.213Z,-0.09
2022-12-15T17:14:59.580Z,-0.09
2022-12-15T17:17:30.653Z,-0.09
2022-12-15T17:22:53.556Z,-0.07
2022-12-15T17:26:00.857Z,-0.08
2022-12-15T17:28:22.355Z,-0.05
2022-12-15T17:30:52.532Z,-0.15
2022-12-15T17:33:23.666Z,-0.16
2022-12-15T17:35:56.044Z,-0.21
2022-12-15T17:38:25.291Z,-0.25
2022-12-15T17:40:58.056Z,-0.26
2022-12-15T17:43:35.403Z,-0.26
2022-12-15T17:46:05.378Z,-0.20
2022-12-15T17:48:36.203Z,-0.21
2022-12-15T17:51:15.460Z,-0.23
2022-12-15T17:53:46.261Z,-0.24
2022-12-15T17:56:18.916Z,-0.23
2022-12-15T17:58:48.172Z,-0.28
2022-12-15T18:01:17.438Z,-0.26
2022-12-15T18:03:46.809Z,-0.20
2022-12-15T18:06:17.353Z,-0.20
2022-12-15T18:08:49.110Z,-0.18
2022-12-15T18:11:20.128Z,-0.13
2022-12-15T18:13:49.113Z,-0.18
2022-12-15T18:16:18.961Z,-0.20
2022-12-15T18:18:48.108Z,-0.24
2022-12-15T18:21:19.270Z,-0.26
2022-12-15T18:23:49.442Z,-0.29
2022-12-15T18:26:21.090Z,-0.27
2022-12-15T18:28:50.176Z,-0.23
2022-12-15T18:31:25.791Z,-0.25
2022-12-15T18:34:00.918Z,-0.24
2022-12-15T18:36:33.440Z,-0.21
2022-12-15T18:39:12.559Z,-0.27
2022-12-15T18:41:42.914Z,-0.25
2022-12-15T18:44:20.552Z,-0.22
2022-12-15T18:46:49.815Z,-0.21
2022-12-15T18:49:19.587Z,-0.18
2022-12-15T18:51:50.897Z,-0.18
2022-12-15T18:54:23.902Z,-0.18
2022-12-15T18:56:54.848Z,-0.21
2022-12-15T18:59:24.016Z,-0.23
2022-12-15T19:01:53.345Z,-0.23
2022-12-15T19:04:22.611Z,-0.24
2022-12-15T19:06:51.954Z,-0.21
2022-12-15T19:09:23.250Z,-0.22
2022-12-15T19:12:12.603Z,-0.23
2022-12-15T19:14:41.757Z,-0.23
2022-12-15T19:17:30.574Z,-0.23
2022-12-15T19:20:17.055Z,-0.25
2022-12-15T19:22:48.326Z,-0.24
2022-12-15T19:25:25.980Z,-0.21
2022-12-15T19:27:59.335Z,-0.21
2022-12-15T19:30:33.222Z,-0.19
2022-12-15T19:33:05.137Z,-0.15
2022-12-15T19:35:34.535Z,-0.16
2022-12-15T19:38:04.603Z,-0.16
2022-12-15T19:40:36.803Z,-0.13
2022-12-15T19:43:07.419Z,-0.16
2022-12-15T19:45:36.540Z,-0.21
2022-12-15T19:48:06.500Z,-0.17
2022-12-15T19:50:38.583Z,-0.11
2022-12-15T19:53:17.543Z,-0.12
2022-12-15T19:55:46.614Z,-0.13
2022-12-15T19:58:31.987Z,-0.17
2022-12-15T20:01:03.910Z,-0.16
2022-12-15T20:03:34.534Z,-0.15
2022-12-15T20:06:05.667Z,-0.18
2022-12-15T20:08:39.239Z,-0.20
2022-12-15T20:11:16.258Z,-0.21
2022-12-15T20:13:47.258Z,-0.22
2022-12-15T20:16:18.955Z,-0.23
2022-12-15T20:18:49.281Z,-0.23
2022-12-15T20:21:35.471Z,-0.23
2022-12-15T20:24:09.875Z,-0.26
2022-12-15T20:26:40.413Z,-0.27
2022-12-15T20:29:24.256Z,-0.27
2022-12-15T20:31:54.413Z,-0.26
2022-12-15T20:34:23.674Z,-0.27
2022-12-15T20:36:53.656Z,-0.26
2022-12-15T20:39:26.738Z,-0.23
2022-12-15T20:41:56.672Z,-0.26
2022-12-15T20:44:27.783Z,-0.24
2022-12-15T20:46:57.061Z,-0.24
2022-12-15T20:49:26.381Z,-0.23
2022-12-15T20:51:56.548Z,-0.21
2022-12-15T20:54:25.611Z,-0.22
2022-12-15T20:56:54.763Z,-0.21
2022-12-15T20:59:23.791Z,-0.23
2022-12-15T21:01:54.954Z,-0.25
2022-12-15T21:04:32.112Z,-0.25
2022-12-15T21:07:01.231Z,-0.26
2022-12-15T21:09:30.318Z,-0.29
2022-12-15T21:12:04.350Z,-0.33
2022-12-15T21:14:36.553Z,-0.30
2022-12-15T21:17:07.224Z,-0.28
2022-12-15T21:19:36.336Z,-0.28
2022-12-15T21:22:06.488Z,-0.27
2022-12-15T21:24:35.885Z,-0.29
2022-12-15T21:27:05.291Z,-0.31
2022-12-15T21:29:35.152Z,-0.32
2022-12-15T21:32:04.276Z,-0.33
2022-12-15T21:34:35.144Z,-0.34
2022-12-15T21:37:05.695Z,-0.43
2022-12-15T21:39:37.453Z,-0.44
2022-12-15T21:42:13.097Z,-0.48
2022-12-15T21:44:42.733Z,-0.50
2022-12-15T21:47:25.976Z,-0.54
2022-12-15T21:49:55.420Z,-0.52
2022-12-15T21:52:27.732Z,-0.45
2022-12-15T21:54:56.697Z,-0.40
2022-12-15T21:57:25.778Z,-0.39
2022-12-15T21:59:55.184Z,-0.40
2022-12-15T22:02:27.839Z,-0.37
2022-12-15T22:05:04.824Z,-0.36
2022-12-15T22:07:33.837Z,-0.24
2022-12-15T22:10:03.490Z,-0.19
2022-12-15T22:12:42.296Z,-0.23
2022-12-15T22:15:18.433Z,-0.13
2022-12-15T22:17:48.223Z,-0.12
2022-12-15T22:20:23.285Z,-0.15
2022-12-15T22:22:52.535Z,-0.30
2022-12-15T22:25:24.601Z,-0.25
2022-12-15T22:27:57.683Z,-0.33
2022-12-15T22:30:28.249Z,-0.19
2022-12-15T22:32:57.450Z,-0.23
2022-12-15T22:35:28.591Z,-0.32
2022-12-15T22:37:57.669Z,-0.37
2022-12-15T22:40:26.665Z,-0.40
2022-12-15T22:42:58.375Z,-0.48
2022-12-15T22:45:27.565Z,-0.47
2022-12-15T22:47:56.532Z,-0.43
2022-12-15T22:50:28.414Z,-0.38
2022-12-15T22:52:57.396Z,-0.39
2022-12-15T22:55:26.478Z,-0.35
2022-12-15T22:58:00.687Z,-0.27
2022-12-15T23:00:29.765Z,-0.26
2022-12-15T23:02:59.660Z,-0.22
2022-12-15T23:05:32.795Z,-0.19
2022-12-15T23:08:01.804Z,-0.16
2022-12-15T23:10:48.319Z,-0.13
2022-12-15T23:13:17.407Z,-0.14
2022-12-15T23:16:03.988Z,-0.13
2022-12-15T23:18:40.335Z,-0.11
2022-12-15T23:21:10.868Z,-0.12
2022-12-15T23:23:40.605Z,-0.12
2022-12-15T23:26:09.951Z,-0.10
2022-12-15T23:28:39.420Z,-0.05
2022-12-15T23:31:14.137Z,-0.05
2022-12-15T23:33:43.277Z,-0.08
2022-12-15T23:36:14.546Z,-0.04
2022-12-15T23:38:43.668Z,-0.04
2022-12-15T23:41:17.947Z,-0.02
2022-12-15T23:43:46.989Z,0.00
2022-12-15T23:46:16.152Z,-0.02
2022-12-15T23:48:53.512Z,-0.02
2022-12-15T23:51:25.615Z,-0.03
2022-12-15T23:53:54.802Z,-0.04
2022-12-15T23:56:50.555Z,-0.01
2022-12-15T23:59:20.757Z,-0.01
